Participated 2 times
Between 2001 and 2002
Guennadi Mikhailov, Russia
Tour de France 2026 starts from Barcelona, Spain in

Stats and Facts from
Tour de France.

2026   2025   2024   2023  2022  2021  2020  2019   2018  2017   2016   2015  2014  2013   2012   2011  2010   2009   2008   2007   2006   2005   2004   2003   2002   2001   2000   1999   1998   1997  1996   1995   1994   1993   1992  1991   1990   1989   1988   1987   1986   1985   1984   1983  1982  1981   1980   1979  1978  1977   1976  1975  1974  1973   1972   1971   1970  1969   1968   1967   1966   1965  1964  1963   1962   1961   1960   1959   1958   1957  1956   1955   1954   1953   1952  1951  1950  1949   1948  1947  1939   1938   1937   1936   1935   1934   1933  1932   1931   1930  1929   1928   1927   1926  1925  1924  1923   1922   1921   1920   1919  1914   1913   1912   1911   1910  1909   1908   1907   1906  1905  1904   1903 

Tourstats
Sitemap

After stage 21 - 2025:
 16451 starters.
  5463 different riders.
  689 teams.
  2398 stages.
  470 restdays.
  466506.50 km.
  5925 abandoned riders.

Click map for 1951 route.
Facts from Tour de France 1951 Additional info and images from 1951.
  |   Stages.  |   Stage winners.  |   Days in jerseys.  |   Teams.  |   All riders.  |   All riders by age.  |   All riders from.  |  

  |   Rookies.  |   Withdrawls.  |   Average speed.  |   GC.  |   Polka  |   Green  |   White  |   Summits. (In tour)  |   Miscellaneous.  |  

Stage 13 on July 17th. 1951
Pick a stage:  1  2  3  4  5  6  7  8  9  10  11  12  13  14  15  16  17  18  19  20  21  22  23  24  

After stage 13:    Gilbert Bauvin  
  DaxTarbes | Dist: 201.00km. | Winner: Serifano Biagioni

Podium
1  Col de l'Aubisque Raphaël Geminianiafter137.00 km.


Average speed for all riders in stage:  32,963 km./hr.

1
 Serifano Biagioni  Italy05h 47' 57"=34,660  km/h

2
 Gilbert Bauvin  Est-Sud Est05h 47' 57"=34,660  km/h

3
 Nello Lauredi  France05h 47' 57"=34,660  km/h

4  Raphaël Geminiani  France05h 47' 57"=34,660  km/h

5  Maurice Diot  Paris05h 55' 52"+  00:07:55 =33,889  km/h

6  Pierre Brambilla  Est-Sud Est05h 55' 52"+  00:07:55 =33,889  km/h

7  Eduard Van Ende  Belgium05h 55' 52"+  00:07:55 =33,889  km/h

8  Gino Bartali  Italy05h 57' 12"+  00:09:15 =33,763  km/h

9  Adolphe Deledda  Est-Sud Est05h 57' 12"+  00:09:15 =33,763  km/h

10  Stan Ockers  Belgium05h 57' 12"+  00:09:15 =33,763  km/h

11  Hans Sommer  Switzerland05h 57' 12"+  00:09:15 =33,763  km/h

12  Hugo Koblet  Switzerland05h 57' 12"+  00:09:15 =33,763  km/h

13  Roger Walkowiak  Ouest-Sud Ouest05h 57' 12"+  00:09:15 =33,763  km/h

14  Fausto Coppi  Italy05h 57' 12"+  00:09:15 =33,763  km/h

15  Robert Desbats  Ouest-Sud Ouest05h 57' 12"+  00:09:15 =33,763  km/h

16  Fiorenzo Magni  Italy05h 57' 12"+  00:09:15 =33,763  km/h

17  Lucien Lazarides  France05h 57' 12"+  00:09:15 =33,763  km/h

18  Bernardo Ruíz  Spain05h 57' 12"+  00:09:15 =33,763  km/h

19  Edouard Muller  France05h 59' 49"+  00:11:52 =33,517  km/h

20  Jean Robic  Paris05h 59' 49"+  00:11:52 =33,517  km/h

21  Georges Meunier  Ouest-Sud Ouest05h 59' 49"+  00:11:52 =33,517  km/h

22  Jean-Baptiste Dotto  Est-Sud Est05h 59' 49"+  00:11:52 =33,517  km/h

22  Louison Bobet  France05h 59' 49"+  00:11:52 =33,517  km/h

22  Pierre Barbotin  France05h 59' 49"+  00:11:52 =33,517  km/h

22  Jean-Apotre Lazarides  France05h 59' 49"+  00:11:52 =33,517  km/h

22  Jacques Marinelli  Île-de-France05h 59' 49"+  00:11:52 =33,517  km/h

22  Alois De Hertog  Belgium05h 59' 49"+  00:11:52 =33,517  km/h

22  Pierre Cogan  Ouest-Sud Ouest05h 59' 49"+  00:11:52 =33,517  km/h

29  Marcel De Mulder  Belgium06h 02' 21"+  00:14:24 =33,283  km/h

30  Gerrit Voorting  Holland06h 02' 21"+  00:14:24 =33,283  km/h

31  André Rosseel  Belgium06h 02' 21"+  00:14:24 =33,283  km/h

32  Armand Baeyens  Belgium06h 02' 21"+  00:14:24 =33,283  km/h

33  Jean Diederich  Luxembourg06h 02' 21"+  00:14:24 =33,283  km/h

34  Lucien Teisseire  France06h 02' 21"+  00:14:24 =33,283  km/h

35  Franco Franchi  Italy06h 02' 21"+  00:14:24 =33,283  km/h

36  Jean-Marie Goasmat  Ouest-Sud Ouest06h 02' 21"+  00:14:24 =33,283  km/h

37  Georges Aeschlimann  Switzerland06h 02' 21"+  00:14:24 =33,283  km/h

38  José Serra Gil  Spain06h 02' 21"+  00:14:24 =33,283  km/h

39  Jean Goldschmit  Luxembourg06h 02' 21"+  00:14:24 =33,283  km/h

40  Germain Derycke  Belgium06h 05' 30"+  00:17:33 =32,996  km/h

41  Francisco Masip  Spain06h 05' 30"+  00:17:33 =32,996  km/h

42  Dalmácio Langarica  Spain06h 05' 30"+  00:17:33 =32,996  km/h

43  Marcel Verschueren  Belgium06h 05' 30"+  00:17:33 =32,996  km/h

44  Andrea Carrea  Italy06h 05' 30"+  00:17:33 =32,996  km/h

45  Louis Deprez  Île-de-France06h 05' 30"+  00:17:33 =32,996  km/h

46  Miguel Gual Bauza  Spain06h 07' 13"+  00:19:16 =32,842  km/h

47  Robert Bonnaventure  Paris06h 07' 13"+  00:19:16 =32,842  km/h

48  Marcel Huber  Switzerland06h 07' 13"+  00:19:16 =32,842  km/h

49  Gottfried Weilenmann  Switzerland06h 07' 13"+  00:19:16 =32,842  km/h

50  Giuseppe Mirando  Est-Sud Est06h 07' 13"+  00:19:16 =32,842  km/h

51  Gino Sciardis  Île-de-France06h 07' 13"+  00:19:16 =32,842  km/h

52  Roger Decock  Belgium06h 07' 13"+  00:19:16 =32,842  km/h

53  Wout Wagtmans  Holland06h 07' 13"+  00:19:16 =32,842  km/h

54  Raymond Guegan  Ouest-Sud Ouest06h 08' 27"+  00:20:30 =32,732  km/h

55  Jean Delahaye  Île-de-France06h 08' 27"+  00:20:30 =32,732  km/h

56  Jean-Louis Carle  Paris06h 08' 27"+  00:20:30 =32,732  km/h

57  Hilaire Couvreur  Belgium06h 08' 27"+  00:20:30 =32,732  km/h

58  Jean-Marie Cieliczka  Ouest-Sud Ouest06h 09' 24"+  00:21:27 =32,648  km/h

59  Alois Vansteenkiste  Belgium06h 09' 24"+  00:21:27 =32,648  km/h

60  Manuel Rodriguez  Spain06h 09' 24"+  00:21:27 =32,648  km/h

61  Bernard Gauthier  France06h 09' 24"+  00:21:27 =32,648  km/h

62  Roger Leveque  Ouest-Sud Ouest06h 09' 24"+  00:21:27 =32,648  km/h

63  Henri Kass  Luxembourg06h 09' 24"+  00:21:27 =32,648  km/h

64  Raoul Remy  France06h 09' 24"+  00:21:27 =32,648  km/h

65  Marcel Michel  Paris06h 09' 24"+  00:21:27 =32,648  km/h

66  Willy Kemp  Luxembourg06h 09' 24"+  00:21:27 =32,648  km/h

66  Vincent Vitetta  Est-Sud Est06h 09' 24"+  00:21:27 =32,648  km/h

66  Roger Buchonnet  Est-Sud Est06h 09' 24"+  00:21:27 =32,648  km/h

66  Pierre Molineris  Est-Sud Est06h 09' 24"+  00:21:27 =32,648  km/h

66  Jean Gueguen  France06h 09' 24"+  00:21:27 =32,648  km/h

66  Ettore Milano  Italy06h 09' 24"+  00:21:27 =32,648  km/h

66  Paul Giguet  Est-Sud Est06h 09' 24"+  00:21:27 =32,648  km/h

66  Jean Baldassari  France06h 09' 24"+  00:21:27 =32,648  km/h

66  Gerrit Peters  Holland06h 09' 24"+  00:21:27 =32,648  km/h

66  Robert Castelin  Est-Sud Est06h 09' 24"+  00:21:27 =32,648  km/h

66  Andre Mahé  Ouest-Sud Ouest06h 09' 24"+  00:21:27 =32,648  km/h

77  Victorio Ruiz Garcia  Spain06h 16' 27"+  00:28:30 =32,036  km/h

78  Angelo Colinelli  Est-Sud Est06h 17' 53"+  00:29:56 =31,915  km/h

79  Abdel-Kader Zaaf  North Africa06h 17' 53"+  00:29:56 =31,915  km/h

80  Luciano Pezzi  Italy06h 17' 53"+  00:29:56 =31,915  km/h

81  Louis Caput  Paris06h 17' 53"+  00:29:56 =31,915  km/h

82  Leo Weilenmann  Switzerland06h 17' 53"+  00:29:56 =31,915  km/h

83  Dominique Forlini  Paris06h 17' 53"+  00:29:56 =31,915  km/h

84  Joseph Morvan  Ouest-Sud Ouest06h 24' 28"+  00:36:31 =31,368  km/h

85  André Labeylie  Île-de-France06h 25' 53"+  00:37:56 =31,253  km/h

86  Hans Dekkers  Holland06h 25' 53"+  00:37:56 =31,253  km/h

87  Emile Baffert  Est-Sud Est06h 26' 32"+  00:38:35 =31,200  km/h

88  Jean Mayen  North Africa06h 26' 32"+  00:38:35 =31,200  km/h

89  Virgilio Salimbeni  Italy06h 33' 34"+  00:45:37 =30,643  km/h


Withdrawls: 3
 RiderTeamReason
21   Sylvio Pedroni ItalyDid not finish
62   Wim van Est HollandDid not finish
119   André Ruffet Ouest-Sud OuestDid not finish
Todays birthdays.

1869 • Adolphe Dorion
1884 • Achille Germain
1886 • Emile Eigeldinger
1896 • Andre Léger
1907 • Frans Dictus
1921 • Alberto Ghirardi
1934 • Joseph Planckaert
1945 • Leif Mortensen
1952 • Alex Van Linden
1960 • Roberto Bressan
1960 • Bernard Chesneau
1962 • Paul Watson
1963 • Juan Rozas
1965 • Jean-Pierre Heynderickx
1967 • José-Manuel Oliveira
1970 • Wilfried Nelissen
1980 • Nick Nuyens
1996 • Jai Hindley

 

Optimized for Chrome - Edge
and Opera browsers.